createdAt,value
2018-08-06T00:02:42.417Z,23.99
2018-08-06T00:05:34.073Z,24.13
2018-08-06T00:08:16.141Z,23.94
2018-08-06T00:11:04.397Z,23.97
2018-08-06T00:13:52.581Z,23.81
2018-08-06T00:16:36.507Z,23.79
2018-08-06T00:19:24.908Z,23.98
2018-08-06T00:22:07.421Z,23.96
2018-08-06T00:24:59.756Z,24.12
2018-08-06T00:27:50.970Z,24.39
2018-08-06T00:30:46.088Z,24.31
2018-08-06T00:33:18.450Z,24.29
2018-08-06T00:35:48.632Z,24.25
2018-08-06T00:38:18.451Z,24.24
2018-08-06T00:40:48.289Z,24.37
2018-08-06T00:43:18.278Z,24.17
2018-08-06T00:45:48.287Z,23.90
2018-08-06T00:48:17.997Z,24.06
2018-08-06T00:50:48.017Z,24.13
2018-08-06T00:53:17.425Z,23.92
2018-08-06T00:55:47.240Z,23.99
2018-08-06T00:58:17.010Z,24.01
2018-08-06T01:00:46.830Z,23.95
2018-08-06T01:03:16.832Z,24.06
2018-08-06T01:05:46.572Z,23.93
2018-08-06T01:08:16.194Z,23.90
2018-08-06T01:10:45.868Z,23.97
2018-08-06T01:13:15.596Z,23.93
2018-08-06T01:15:45.489Z,23.86
2018-08-06T01:18:15.471Z,23.77
2018-08-06T01:20:45.300Z,23.83
2018-08-06T01:23:15.085Z,23.76
2018-08-06T01:25:44.787Z,23.64
2018-08-06T01:28:14.639Z,23.55
2018-08-06T01:30:44.570Z,23.74
2018-08-06T01:35:57.652Z,23.55
2018-08-06T01:38:30.793Z,23.49
2018-08-06T01:41:03.583Z,23.35
2018-08-06T01:43:34.023Z,22.88
2018-08-06T01:46:04.900Z,23.15
2018-08-06T01:48:35.997Z,23.24
2018-08-06T01:51:06.360Z,23.18
2018-08-06T01:53:36.699Z,23.22
2018-08-06T01:56:07.544Z,23.27
2018-08-06T01:58:38.166Z,23.20
2018-08-06T02:01:07.872Z,23.23
2018-08-06T02:03:38.499Z,23.19
2018-08-06T02:06:08.858Z,23.24
2018-08-06T02:08:38.887Z,23.20
2018-08-06T02:11:09.973Z,23.20
2018-08-06T02:13:43.831Z,23.29
2018-08-06T02:16:14.994Z,23.18
2018-08-06T02:18:45.800Z,23.32
2018-08-06T02:21:16.493Z,23.04
2018-08-06T02:26:21.957Z,22.81
2018-08-06T02:28:51.476Z,22.82
2018-08-06T02:31:21.463Z,22.65
2018-08-06T02:34:02.122Z,22.62
2018-08-06T02:36:31.953Z,22.62
2018-08-06T02:39:01.793Z,22.75
2018-08-06T02:41:32.436Z,22.97
2018-08-06T02:44:01.882Z,23.07
2018-08-06T02:46:32.553Z,23.18
2018-08-06T02:49:02.539Z,23.26
2018-08-06T02:51:32.614Z,23.04
2018-08-06T02:54:02.535Z,22.92
2018-08-06T02:56:32.233Z,22.86
2018-08-06T02:59:02.156Z,23.07
2018-08-06T03:01:31.843Z,23.05
2018-08-06T03:04:03.293Z,22.92
2018-08-06T03:06:33.219Z,22.66
2018-08-06T03:09:03.081Z,22.73
2018-08-06T03:11:32.914Z,22.64
2018-08-06T03:14:02.660Z,22.65
2018-08-06T03:16:33.314Z,22.66
2018-08-06T03:19:03.116Z,22.51
2018-08-06T03:21:32.872Z,22.67
2018-08-06T03:24:13.702Z,22.66
2018-08-06T03:26:55.009Z,22.63
2018-08-06T03:29:46.772Z,22.70
2018-08-06T03:32:29.989Z,22.82
2018-08-06T03:37:53.032Z,22.89
2018-08-06T03:40:28.170Z,22.65
2018-08-06T03:45:45.416Z,23.12
2018-08-06T03:48:24.560Z,23.24
2018-08-06T03:51:02.882Z,23.05
2018-08-06T03:56:22.581Z,22.77
2018-08-06T03:59:00.467Z,22.81
2018-08-06T04:01:34.767Z,22.75
2018-08-06T04:04:23.857Z,23.09
2018-08-06T04:07:02.350Z,22.99
2018-08-06T04:09:38.411Z,22.80
2018-08-06T04:12:12.404Z,22.90
2018-08-06T04:14:53.730Z,23.12
2018-08-06T04:17:32.032Z,23.27
2018-08-06T04:20:15.686Z,23.21
2018-08-06T04:22:52.508Z,23.70
2018-08-06T04:25:26.861Z,23.73
2018-08-06T04:28:04.699Z,23.78
2018-08-06T04:30:43.324Z,23.73
2018-08-06T04:33:23.762Z,23.76
2018-08-06T04:36:01.101Z,23.78
2018-08-06T04:38:59.469Z,23.73
2018-08-06T04:44:47.328Z,23.78
2018-08-06T04:50:29.484Z,23.67
2018-08-06T04:53:25.436Z,23.98
2018-08-06T04:56:17.292Z,24.26
2018-08-06T04:59:03.408Z,24.30
2018-08-06T05:01:55.862Z,24.40
2018-08-06T05:04:50.685Z,24.46
2018-08-06T05:10:36.044Z,24.78
2018-08-06T05:13:31.330Z,24.41
2018-08-06T05:16:20.809Z,24.18
2018-08-06T05:25:09.434Z,24.87
2018-08-06T05:28:00.586Z,25.21
2018-08-06T05:36:42.460Z,25.18
2018-08-06T05:39:28.276Z,25.48
2018-08-06T05:42:12.554Z,25.68
2018-08-06T05:45:03.464Z,25.89
2018-08-06T05:47:46.320Z,26.10
2018-08-06T05:50:30.828Z,26.26
2018-08-06T05:53:16.461Z,26.71
2018-08-06T05:56:07.783Z,27.05
2018-08-06T05:58:57.796Z,27.38
2018-08-06T06:01:43.250Z,27.38
2018-08-06T06:07:22.336Z,27.84
2018-08-06T06:12:59.905Z,28.37
2018-08-06T06:15:50.326Z,28.79
2018-08-06T06:18:37.689Z,28.95
2018-08-06T06:21:30.470Z,29.17
2018-08-06T06:24:22.083Z,29.20
2018-08-06T06:30:06.461Z,29.36
2018-08-06T06:41:40.154Z,29.04
2018-08-06T06:44:39.730Z,29.18
2018-08-06T06:47:33.560Z,29.16
2018-08-06T06:58:49.780Z,29.53
2018-08-06T07:01:37.869Z,29.70
2018-08-06T07:04:27.477Z,29.91
2018-08-06T07:07:27.394Z,29.69
2018-08-06T07:13:07.954Z,29.74
2018-08-06T07:16:01.478Z,29.63
2018-08-06T07:21:43.233Z,29.75
2018-08-06T07:24:29.346Z,29.87
2018-08-06T07:27:19.628Z,30.11
2018-08-06T07:30:05.178Z,30.15
2018-08-06T07:33:01.248Z,30.19
2018-08-06T07:38:39.350Z,30.10
2018-08-06T07:44:18.520Z,30.26
2018-08-06T07:47:11.284Z,29.99
2018-08-06T07:52:55.051Z,30.57
2018-08-06T07:55:51.446Z,30.76
2018-08-06T08:01:34.157Z,31.39
2018-08-06T08:04:20.812Z,31.25
2018-08-06T08:07:14.815Z,31.45
2018-08-06T08:10:02.927Z,31.40
2018-08-06T08:15:46.241Z,31.49
2018-08-06T08:18:37.275Z,31.68
2018-08-06T08:21:21.227Z,31.48
2018-08-06T08:29:47.205Z,31.02
2018-08-06T08:32:33.423Z,31.44
2018-08-06T08:38:11.333Z,31.86
2018-08-06T08:46:49.810Z,32.27
2018-08-06T08:52:32.481Z,32.32
2018-08-06T08:55:24.203Z,32.65
2018-08-06T08:58:14.568Z,32.73
2018-08-06T09:04:03.811Z,32.07
2018-08-06T09:06:59.022Z,31.84
2018-08-06T09:12:40.306Z,31.85
2018-08-06T09:15:30.621Z,32.13
2018-08-06T09:18:20.493Z,32.31
2018-08-06T09:21:15.420Z,33.09
2018-08-06T09:24:07.689Z,33.35
2018-08-06T09:29:47.928Z,33.13
2018-08-06T09:32:40.895Z,33.09
2018-08-06T09:35:37.144Z,33.24
2018-08-06T09:41:21.437Z,33.63
2018-08-06T09:47:13.316Z,33.02
2018-08-06T09:50:09.290Z,33.32
2018-08-06T09:53:07.299Z,33.10
2018-08-06T09:56:03.736Z,33.46
2018-08-06T09:58:51.445Z,33.97
2018-08-06T10:01:43.038Z,33.59
2018-08-06T10:04:45.099Z,34.06
2018-08-06T10:07:35.768Z,34.37
2018-08-06T10:10:28.276Z,34.36
2018-08-06T10:16:20.516Z,34.46
2018-08-06T10:19:15.406Z,34.83
2018-08-06T10:22:08.103Z,34.58
2018-08-06T10:24:56.991Z,34.35
2018-08-06T10:27:51.182Z,34.41
2018-08-06T10:30:41.517Z,35.05
2018-08-06T10:33:26.807Z,35.56
2018-08-06T10:42:04.304Z,35.20
2018-08-06T10:45:00.936Z,35.34
2018-08-06T10:53:33.751Z,35.47
2018-08-06T10:56:31.397Z,35.54
2018-08-06T11:02:19.457Z,35.24
2018-08-06T11:05:08.796Z,35.67
2018-08-06T11:08:00.995Z,36.06
2018-08-06T11:10:59.352Z,35.86
2018-08-06T11:13:55.720Z,35.41
2018-08-06T11:19:31.423Z,35.96
2018-08-06T11:22:21.868Z,35.83
2018-08-06T11:37:09.861Z,36.29
2018-08-06T11:40:00.640Z,36.60
2018-08-06T11:42:53.236Z,36.62
2018-08-06T11:51:25.660Z,36.44
2018-08-06T11:57:19.241Z,35.92
2018-08-06T12:00:12.752Z,36.68
2018-08-06T12:03:05.702Z,36.88
2018-08-06T12:08:42.839Z,36.75
2018-08-06T12:11:36.688Z,36.84
2018-08-06T12:14:22.103Z,36.90
2018-08-06T12:17:08.515Z,37.08
2018-08-06T12:19:50.830Z,36.64
2018-08-06T12:22:50.498Z,37.11
2018-08-06T12:25:49.015Z,36.68
2018-08-06T12:28:35.972Z,36.77
2018-08-06T12:31:16.980Z,36.57
2018-08-06T12:34:06.833Z,36.38
2018-08-06T12:39:45.078Z,35.19
2018-08-06T12:45:34.019Z,35.00
2018-08-06T12:51:18.849Z,35.71
2018-08-06T12:54:13.051Z,36.34
2018-08-06T12:57:01.323Z,36.43
2018-08-06T13:02:49.369Z,36.19
2018-08-06T13:05:35.724Z,35.88
2018-08-06T13:08:17.503Z,36.54
2018-08-06T13:11:03.446Z,36.85
2018-08-06T13:13:59.555Z,36.96
2018-08-06T13:16:48.440Z,36.96
2018-08-06T13:19:43.662Z,37.12
2018-08-06T13:22:40.328Z,37.18
2018-08-06T13:25:33.906Z,37.68
2018-08-06T13:28:17.026Z,37.84
2018-08-06T13:30:59.087Z,37.70
2018-08-06T13:33:38.610Z,38.11
2018-08-06T13:36:24.747Z,37.70
2018-08-06T13:39:04.265Z,37.68
2018-08-06T13:41:48.705Z,37.84
2018-08-06T13:44:35.916Z,37.46
2018-08-06T13:47:21.333Z,37.37
2018-08-06T13:50:03.513Z,37.67
2018-08-06T13:52:46.832Z,37.93
2018-08-06T13:55:38.097Z,38.53
2018-08-06T13:58:21.652Z,38.34
2018-08-06T14:01:07.859Z,38.53
2018-08-06T14:03:48.720Z,38.88
2018-08-06T14:06:37.843Z,38.25
2018-08-06T14:12:16.243Z,37.33
2018-08-06T14:14:58.591Z,36.96
2018-08-06T14:20:44.404Z,37.38
2018-08-06T14:23:25.020Z,37.50
2018-08-06T14:26:08.915Z,37.51
2018-08-06T14:28:55.388Z,37.87
2018-08-06T14:31:37.827Z,37.80
2018-08-06T14:34:27.384Z,38.16
2018-08-06T14:37:09.130Z,38.13
2018-08-06T14:39:55.006Z,37.60
2018-08-06T14:42:38.965Z,37.62
2018-08-06T14:45:26.001Z,37.46
2018-08-06T14:48:06.155Z,37.47
2018-08-06T14:50:53.909Z,37.74
2018-08-06T14:53:36.963Z,38.16
2018-08-06T14:56:26.059Z,38.15
2018-08-06T14:59:10.575Z,37.87
2018-08-06T15:01:53.717Z,37.54
2018-08-06T15:04:37.190Z,37.25
2018-08-06T15:07:16.682Z,37.51
2018-08-06T15:10:07.687Z,37.90
2018-08-06T15:15:52.244Z,37.85
2018-08-06T15:21:30.233Z,37.82
2018-08-06T15:27:10.686Z,37.13
2018-08-06T15:29:53.716Z,36.93
2018-08-06T15:32:35.437Z,36.86
2018-08-06T15:35:17.552Z,36.96
2018-08-06T15:38:09.330Z,37.63
2018-08-06T15:40:56.752Z,37.69
2018-08-06T15:43:44.096Z,37.72
2018-08-06T15:46:26.806Z,37.48
2018-08-06T15:49:10.925Z,37.46
2018-08-06T15:52:01.574Z,37.23
2018-08-06T16:00:24.327Z,37.49
2018-08-06T16:03:20.158Z,37.39
2018-08-06T16:06:12.958Z,37.04
2018-08-06T16:09:09.289Z,37.18
2018-08-06T16:14:40.327Z,37.39
2018-08-06T16:17:27.636Z,37.17
2018-08-06T16:20:11.434Z,37.18
2018-08-06T16:22:56.447Z,37.50
2018-08-06T16:25:44.711Z,37.58
2018-08-06T16:28:30.646Z,37.13
2018-08-06T16:31:17.150Z,36.90
2018-08-06T16:34:06.594Z,36.81
2018-08-06T16:36:53.006Z,36.81
2018-08-06T16:39:44.854Z,36.66
2018-08-06T16:42:25.358Z,36.52
2018-08-06T16:45:09.058Z,35.97
2018-08-06T16:48:00.738Z,35.79
2018-08-06T16:50:53.180Z,35.70
2018-08-06T16:53:42.609Z,35.90
2018-08-06T16:56:29.465Z,36.24
2018-08-06T16:59:21.757Z,36.61
2018-08-06T17:02:05.947Z,36.57
2018-08-06T17:04:45.189Z,36.93
2018-08-06T17:07:33.755Z,36.63
2018-08-06T17:10:20.277Z,36.42
2018-08-06T17:13:05.265Z,36.13
2018-08-06T17:15:53.948Z,35.75
2018-08-06T17:18:42.633Z,35.66
2018-08-06T17:24:19.789Z,34.46
2018-08-06T17:30:10.339Z,34.19
2018-08-06T17:32:55.303Z,34.25
2018-08-06T17:35:41.820Z,34.10
2018-08-06T17:38:27.483Z,34.03
2018-08-06T17:47:00.196Z,33.59
2018-08-06T17:49:43.215Z,33.47
2018-08-06T17:52:34.119Z,33.38
2018-08-06T18:01:17.069Z,33.08
2018-08-06T18:15:37.790Z,32.50
2018-08-06T18:21:17.475Z,32.34
2018-08-06T18:24:07.394Z,32.21
2018-08-06T18:26:54.227Z,31.97
2018-08-06T18:29:45.328Z,31.93
2018-08-06T18:32:29.265Z,31.66
2018-08-06T18:35:19.454Z,31.54
2018-08-06T18:38:11.117Z,31.44
2018-08-06T18:40:56.604Z,31.35
2018-08-06T18:43:37.832Z,31.25
2018-08-06T18:46:18.467Z,31.11
2018-08-06T18:49:03.068Z,30.95
2018-08-06T18:51:41.415Z,30.74
2018-08-06T18:54:25.437Z,30.50
2018-08-06T18:57:11.456Z,30.47
2018-08-06T18:59:48.177Z,30.66
2018-08-06T19:02:28.678Z,30.89
2018-08-06T19:05:05.268Z,30.78
2018-08-06T19:07:49.372Z,30.57
2018-08-06T19:10:34.523Z,30.47
2018-08-06T19:13:18.626Z,30.38
2018-08-06T19:16:02.616Z,30.43
2018-08-06T19:18:42.834Z,30.33
2018-08-06T19:21:19.073Z,30.26
2018-08-06T19:24:04.241Z,30.18
2018-08-06T19:26:45.340Z,30.09
2018-08-06T19:29:25.393Z,29.94
2018-08-06T19:32:03.721Z,29.90
2018-08-06T19:34:55.635Z,29.80
2018-08-06T19:37:41.323Z,29.68
2018-08-06T19:40:30.479Z,29.78
2018-08-06T19:43:13.279Z,29.61
2018-08-06T19:45:48.701Z,29.54
2018-08-06T19:48:27.526Z,29.51
2018-08-06T19:51:09.386Z,29.46
2018-08-06T19:53:55.889Z,29.39
2018-08-06T19:56:31.953Z,29.35
2018-08-06T19:59:08.872Z,29.33
2018-08-06T20:01:50.463Z,29.11
2018-08-06T20:04:26.802Z,28.79
2018-08-06T20:09:45.169Z,28.67
2018-08-06T20:12:27.899Z,28.74
2018-08-06T20:15:08.870Z,28.70
2018-08-06T20:17:49.069Z,28.71
2018-08-06T20:20:24.709Z,28.71
2018-08-06T20:23:07.704Z,28.76
2018-08-06T20:25:48.770Z,28.81
2018-08-06T20:28:31.114Z,28.81
2018-08-06T20:31:08.231Z,28.80
2018-08-06T20:33:53.045Z,28.72
2018-08-06T20:36:31.226Z,28.58
2018-08-06T20:39:11.286Z,28.56
2018-08-06T20:41:46.927Z,28.57
2018-08-06T20:44:25.811Z,28.47
2018-08-06T20:47:05.193Z,28.48
2018-08-06T20:49:46.797Z,28.41
2018-08-06T20:52:25.665Z,28.30
2018-08-06T20:55:05.737Z,28.33
2018-08-06T20:57:51.483Z,28.29
2018-08-06T21:00:30.407Z,28.24
2018-08-06T21:05:46.219Z,28.19
2018-08-06T21:11:14.718Z,27.97
2018-08-06T21:13:52.535Z,28.03
2018-08-06T21:16:31.931Z,28.04
2018-08-06T21:19:09.304Z,27.74
2018-08-06T21:29:56.841Z,27.77
2018-08-06T21:32:39.364Z,27.68
2018-08-06T21:35:27.416Z,27.58
2018-08-06T21:38:10.263Z,27.63
2018-08-06T21:40:53.235Z,27.66
2018-08-06T21:43:37.539Z,27.66
2018-08-06T21:46:19.800Z,27.67
2018-08-06T21:49:01.136Z,27.68
2018-08-06T21:51:37.386Z,27.53
2018-08-06T21:54:16.523Z,27.47
2018-08-06T21:59:39.146Z,27.47
2018-08-06T22:02:14.179Z,27.51
2018-08-06T22:04:55.512Z,27.29
2018-08-06T22:07:33.798Z,27.17
2018-08-06T22:10:13.052Z,27.22
2018-08-06T22:12:53.229Z,27.25
2018-08-06T22:15:31.499Z,27.28
2018-08-06T22:18:19.809Z,27.19
2018-08-06T22:21:03.919Z,27.22
2018-08-06T22:23:41.390Z,27.08
2018-08-06T22:26:18.360Z,27.02
2018-08-06T22:28:55.477Z,27.02
2018-08-06T22:31:35.523Z,27.10
2018-08-06T22:34:16.790Z,27.06
2018-08-06T22:36:58.224Z,26.77
2018-08-06T22:39:40.346Z,26.77
2018-08-06T22:42:25.670Z,26.84
2018-08-06T22:45:04.405Z,26.93
2018-08-06T22:47:44.982Z,26.94
2018-08-06T22:50:23.224Z,26.92
2018-08-06T22:55:54.338Z,26.66
2018-08-06T22:58:28.428Z,26.51
2018-08-06T23:01:11.457Z,26.66
2018-08-06T23:03:50.440Z,26.66
2018-08-06T23:06:26.372Z,26.66
2018-08-06T23:09:09.190Z,26.62
2018-08-06T23:11:46.526Z,26.57
2018-08-06T23:14:22.746Z,26.69
2018-08-06T23:17:02.273Z,26.57
2018-08-06T23:19:38.274Z,26.48
2018-08-06T23:22:20.337Z,26.53
2018-08-06T23:24:55.304Z,26.46
2018-08-06T23:27:39.825Z,26.45
2018-08-06T23:30:22.240Z,26.51
2018-08-06T23:33:04.608Z,26.60
2018-08-06T23:35:43.616Z,26.39
2018-08-06T23:38:26.603Z,26.39
2018-08-06T23:41:07.441Z,26.43
2018-08-06T23:46:28.492Z,26.45
2018-08-06T23:49:06.600Z,26.44
2018-08-06T23:51:49.848Z,26.33
2018-08-06T23:54:29.379Z,26.30
2018-08-06T23:57:09.553Z,26.29
2018-08-06T23:59:53.848Z,26.22
